Mc Ghee Tyson Airport
KTYS : rendu visible

Aérodrome :











RETROUVEZ-NOUS SUR...

 
LOGIN :

S'inscrire | Disclaimer

   EN    FR    IT 

 









Légende :    VFR   VFR Marginal   IFR   IFR Intensif   IFR Très Intensif
Visi : 
Plafond : 
>= 8 km
>= 3000ft
5 à 8 km
1000 à 3000 ft
1500m à 5 km
500 à 1000 ft
800 à 1500m
200 à 500 ft
< 800m
< 200 ft
Symboles :   Orages  Brouillard  Fortes neiges  Fortes précipitations  Vent > 20 kt






- Altitude de l'aérodrome : 981 ft
- Code IATA : TYS


KTYS - Mc Ghee Tyson

DERNIER METAR :
  • 230053Z 35005KT 10SM FEW130 OVC250 02/M08 A3028 RMK AO2 SLP265 T00171078

METARs EXPIRÉS :
  • 222353Z 02005KT 10SM FEW130 OVC250 03/M08 A3028 RMK AO2 SLP263 T00281083 10050 20011 56012
  • 222253Z 01005KT 10SM OVC250 03/M08 A3028 RMK AO2 SLP262 T00331083

TAF KTYS
Valide du 23 à 00h jusqu'au 24 à 00h UTC


222331Z 2300/2324 00000KT P6SM BKN200
FM231300 00000KT P6SM OVC100
FM232200 05004KT P6SM BKN070



MET'MAP, la Météo Aéronautique d'un coup d'oeil ! - Copyright ORBIFLY Décembre 2007 - Disclaimer

ORBIFLY MET'MAP TEAM :

Programmation & Développement : Alexandra Zaïnal
Sur une idée originale de : Baudouin d'Aumeries
Assistance à la programmation : Marc-Olivier Méhu
Soutien technique & logistique : Manuel Goepfert

Contact : metmap@orbifly.com




SOURCES & CREDITS :

   NOAA       Earth
Advisory